sensor_id;sensor_type;location;lat;lon;timestamp;pressure;altitude;pressure_sealevel;temperature;humidity
56400;BME280;42298;53.638;9.876;2024-03-23T00:54:34;101481.88;;;8.16;100.00
56400;BME280;42298;53.638;9.876;2024-03-23T00:57:00;101486.19;;;8.17;100.00
56400;BME280;42298;53.638;9.876;2024-03-23T00:59:25;101487.78;;;8.19;100.00
56400;BME280;42298;53.638;9.876;2024-03-23T01:01:53;101484.53;;;8.16;100.00
56400;BME280;42298;53.638;9.876;2024-03-23T01:04:19;101468.88;;;8.13;100.00
56400;BME280;42298;53.638;9.876;2024-03-23T01:06:44;101465.63;;;8.09;100.00
56400;BME280;42298;53.638;9.876;2024-03-23T01:09:09;101472.59;;;8.10;100.00
56400;BME280;42298;53.638;9.876;2024-03-23T01:11:36;101461.97;;;8.10;100.00
56400;BME280;42298;53.638;9.876;2024-03-23T01:14:02;101455.28;;;8.06;100.00
56400;BME280;42298;53.638;9.876;2024-03-23T01:16:28;101461.66;;;8.03;100.00
56400;BME280;42298;53.638;9.876;2024-03-23T01:18:53;101459.25;;;8.00;100.00
56400;BME280;42298;53.638;9.876;2024-03-23T01:21:18;101445.66;;;7.94;100.00
56400;BME280;42298;53.638;9.876;2024-03-23T01:23:43;101442.50;;;8.00;100.00
56400;BME280;42298;53.638;9.876;2024-03-23T01:26:09;101453.13;;;8.00;100.00
56400;BME280;42298;53.638;9.876;2024-03-23T01:28:34;101438.41;;;7.96;100.00
56400;BME280;42298;53.638;9.876;2024-03-23T01:31:00;101446.09;;;7.99;100.00
56400;BME280;42298;53.638;9.876;2024-03-23T01:33:25;101439.25;;;7.96;100.00
56400;BME280;42298;53.638;9.876;2024-03-23T01:35:50;101435.75;;;7.96;100.00
56400;BME280;42298;53.638;9.876;2024-03-23T01:38:15;101425.53;;;7.91;100.00
56400;BME280;42298;53.638;9.876;2024-03-23T01:40:41;101432.38;;;7.94;100.00
56400;BME280;42298;53.638;9.876;2024-03-23T01:43:07;101441.78;;;7.98;100.00
56400;BME280;42298;53.638;9.876;2024-03-23T01:45:33;101424.69;;;7.91;100.00
56400;BME280;42298;53.638;9.876;2024-03-23T01:47:59;101432.28;;;7.95;100.00
56400;BME280;42298;53.638;9.876;2024-03-23T01:50:25;101412.84;;;7.95;100.00
56400;BME280;42298;53.638;9.876;2024-03-23T01:52:50;101405.25;;;7.90;100.00
56400;BME280;42298;53.638;9.876;2024-03-23T01:55:16;101393.09;;;7.87;100.00
56400;BME280;42298;53.638;9.876;2024-03-23T01:57:41;101400.69;;;7.92;100.00
56400;BME280;42298;53.638;9.876;2024-03-23T02:00:07;101397.56;;;7.87;100.00
56400;BME280;42298;53.638;9.876;2024-03-23T02:02:34;101387.09;;;7.85;100.00
56400;BME280;42298;53.638;9.876;2024-03-23T02:04:59;101368.19;;;7.79;100.00
56400;BME280;42298;53.638;9.876;2024-03-23T02:07:25;101360.38;;;7.77;100.00
56400;BME280;42298;53.638;9.876;2024-03-23T02:09:51;101355.31;;;7.74;100.00
56400;BME280;42298;53.638;9.876;2024-03-23T02:12:17;101365.69;;;7.77;100.00
56400;BME280;42298;53.638;9.876;2024-03-23T02:14:43;101358.69;;;7.76;100.00
56400;BME280;42298;53.638;9.876;2024-03-23T02:17:09;101356.75;;;7.78;100.00
56400;BME280;42298;53.638;9.876;2024-03-23T02:19:34;101351.56;;;7.77;100.00
56400;BME280;42298;53.638;9.876;2024-03-23T02:22:00;101344.00;;;7.72;100.00
56400;BME280;42298;53.638;9.876;2024-03-23T02:24:25;101335.19;;;7.72;100.00
56400;BME280;42298;53.638;9.876;2024-03-23T02:26:50;101319.41;;;7.70;100.00
56400;BME280;42298;53.638;9.876;2024-03-23T02:29:16;101313.16;;;7.71;100.00
56400;BME280;42298;53.638;9.876;2024-03-23T02:31:41;101321.09;;;7.71;100.00
56400;BME280;42298;53.638;9.876;2024-03-23T02:34:06;101320.13;;;7.72;100.00
56400;BME280;42298;53.638;9.876;2024-03-23T02:36:32;101316.75;;;7.70;100.00
56400;BME280;42298;53.638;9.876;2024-03-23T02:38:57;101327.25;;;7.72;100.00
56400;BME280;42298;53.638;9.876;2024-03-23T02:41:22;101313.66;;;7.65;100.00
56400;BME280;42298;53.638;9.876;2024-03-23T02:43:49;101320.91;;;7.63;100.00
56400;BME280;42298;53.638;9.876;2024-03-23T02:46:15;101306.19;;;7.59;100.00
56400;BME280;42298;53.638;9.876;2024-03-23T02:48:40;101312.72;;;7.55;100.00
56400;BME280;42298;53.638;9.876;2024-03-23T02:51:06;101308.66;;;7.51;100.00
56400;BME280;42298;53.638;9.876;2024-03-23T02:53:31;101302.66;;;7.49;100.00
56400;BME280;42298;53.638;9.876;2024-03-23T02:55:58;101303.38;;;7.51;100.00
56400;BME280;42298;53.638;9.876;2024-03-23T02:58:23;101306.03;;;7.51;100.00
56400;BME280;42298;53.638;9.876;2024-03-23T03:00:48;101283.63;;;7.43;100.00
56400;BME280;42298;53.638;9.876;2024-03-23T03:03:14;101288.53;;;7.48;100.00
56400;BME280;42298;53.638;9.876;2024-03-23T03:05:39;101286.03;;;7.46;100.00
56400;BME280;42298;53.638;9.876;2024-03-23T03:08:05;101280.72;;;7.46;100.00
56400;BME280;42298;53.638;9.876;2024-03-23T03:10:30;101276.25;;;7.47;100.00
56400;BME280;42298;53.638;9.876;2024-03-23T03:12:56;101270.13;;;7.46;100.00
56400;BME280;42298;53.638;9.876;2024-03-23T03:15:22;101258.22;;;7.41;100.00
56400;BME280;42298;53.638;9.876;2024-03-23T03:17:47;101261.69;;;7.41;100.00
56400;BME280;42298;53.638;9.876;2024-03-23T03:20:12;101261.84;;;7.40;100.00
56400;BME280;42298;53.638;9.876;2024-03-23T03:22:38;101257.38;;;7.40;100.00
56400;BME280;42298;53.638;9.876;2024-03-23T03:25:04;101254.41;;;7.34;100.00
56400;BME280;42298;53.638;9.876;2024-03-23T03:27:30;101257.88;;;7.34;100.00
56400;BME280;42298;53.638;9.876;2024-03-23T03:29:55;101267.66;;;7.34;100.00
56400;BME280;42298;53.638;9.876;2024-03-23T03:32:21;101246.84;;;7.29;100.00
56400;BME280;42298;53.638;9.876;2024-03-23T03:34:46;101246.13;;;7.27;100.00
56400;BME280;42298;53.638;9.876;2024-03-23T03:37:11;101244.19;;;7.29;100.00
56400;BME280;42298;53.638;9.876;2024-03-23T03:39:37;101239.28;;;7.24;100.00
56400;BME280;42298;53.638;9.876;2024-03-23T03:42:02;101240.56;;;7.30;100.00
56400;BME280;42298;53.638;9.876;2024-03-23T03:44:31;101248.66;;;7.29;100.00
56400;BME280;42298;53.638;9.876;2024-03-23T03:46:57;101238.56;;;7.22;100.00
56400;BME280;42298;53.638;9.876;2024-03-23T03:49:22;101245.41;;;7.25;100.00
56400;BME280;42298;53.638;9.876;2024-03-23T03:51:48;101243.47;;;7.27;100.00
56400;BME280;42298;53.638;9.876;2024-03-23T03:54:13;101234.81;;;7.25;100.00
56400;BME280;42298;53.638;9.876;2024-03-23T03:56:38;101226.84;;;7.25;100.00
56400;BME280;42298;53.638;9.876;2024-03-23T03:59:03;101211.22;;;7.22;100.00
56400;BME280;42298;53.638;9.876;2024-03-23T04:01:29;101224.81;;;7.29;100.00
56400;BME280;42298;53.638;9.876;2024-03-23T04:03:55;101212.38;;;7.29;100.00
56400;BME280;42298;53.638;9.876;2024-03-23T04:06:20;101211.28;;;7.32;100.00
56400;BME280;42298;53.638;9.876;2024-03-23T04:08:46;101194.47;;;7.21;100.00
56400;BME280;42298;53.638;9.876;2024-03-23T04:11:11;101208.31;;;7.25;100.00
56400;BME280;42298;53.638;9.876;2024-03-23T04:13:36;101200.34;;;7.25;100.00
56400;BME280;42298;53.638;9.876;2024-03-23T04:16:02;101201.34;;;7.24;100.00
56400;BME280;42298;53.638;9.876;2024-03-23T04:18:27;101209.28;;;7.24;100.00
56400;BME280;42298;53.638;9.876;2024-03-23T04:20:52;101202.56;;;7.20;100.00
56400;BME280;42298;53.638;9.876;2024-03-23T04:23:18;101196.06;;;7.13;100.00
56400;BME280;42298;53.638;9.876;2024-03-23T04:25:43;101196.22;;;7.11;100.00
56400;BME280;42298;53.638;9.876;2024-03-23T04:28:08;101176.25;;;7.07;100.00
56400;BME280;42298;53.638;9.876;2024-03-23T04:30:34;101159.63;;;7.05;100.00
56400;BME280;42298;53.638;9.876;2024-03-23T04:32:59;101159.25;;;7.10;100.00
56400;BME280;42298;53.638;9.876;2024-03-23T04:35:26;101167.91;;;7.12;100.00
56400;BME280;42298;53.638;9.876;2024-03-23T04:37:51;101188.38;;;7.10;100.00
56400;BME280;42298;53.638;9.876;2024-03-23T04:40:17;101201.88;;;7.07;100.00
56400;BME280;42298;53.638;9.876;2024-03-23T04:42:43;101193.22;;;7.04;100.00
56400;BME280;42298;53.638;9.876;2024-03-23T04:45:08;101201.19;;;7.04;100.00
56400;BME280;42298;53.638;9.876;2024-03-23T04:47:34;101201.41;;;7.01;100.00
56400;BME280;42298;53.638;9.876;2024-03-23T04:50:01;101194.94;;;6.94;100.00
56400;BME280;42298;53.638;9.876;2024-03-23T04:52:27;101202.88;;;6.94;100.00
56400;BME280;42298;53.638;9.876;2024-03-23T04:54:52;101200.34;;;6.93;100.00
56400;BME280;42298;53.638;9.876;2024-03-23T04:57:17;101190.47;;;6.95;100.00
56400;BME280;42298;53.638;9.876;2024-03-23T04:59:42;101193.84;;;6.97;100.00
56400;BME280;42298;53.638;9.876;2024-03-23T05:02:08;101187.44;;;6.99;100.00
56400;BME280;42298;53.638;9.876;2024-03-23T05:04:33;101175.47;;;6.95;100.00
56400;BME280;42298;53.638;9.876;2024-03-23T05:06:58;101170.88;;;6.86;100.00
56400;BME280;42298;53.638;9.876;2024-03-23T05:09:24;101172.59;;;6.87;100.00
56400;BME280;42298;53.638;9.876;2024-03-23T05:11:49;101169.09;;;6.87;100.00
56400;BME280;42298;53.638;9.876;2024-03-23T05:14:14;101158.19;;;6.80;100.00
56400;BME280;42298;53.638;9.876;2024-03-23T05:16:40;101172.81;;;6.84;100.00
56400;BME280;42298;53.638;9.876;2024-03-23T05:19:05;101172.81;;;6.84;100.00
56400;BME280;42298;53.638;9.876;2024-03-23T05:21:31;101162.22;;;6.84;100.00
56400;BME280;42298;53.638;9.876;2024-03-23T05:23:56;101160.44;;;6.84;100.00
56400;BME280;42298;53.638;9.876;2024-03-23T05:26:22;101161.28;;;6.85;100.00
56400;BME280;42298;53.638;9.876;2024-03-23T05:28:47;101164.53;;;6.89;100.00
56400;BME280;42298;53.638;9.876;2024-03-23T05:31:12;101174.25;;;6.88;100.00
56400;BME280;42298;53.638;9.876;2024-03-23T05:33:47;101170.50;;;6.91;100.00
56400;BME280;42298;53.638;9.876;2024-03-23T05:36:13;101162.44;;;6.92;100.00
56400;BME280;42298;53.638;9.876;2024-03-23T05:38:38;101160.91;;;6.90;100.00
56400;BME280;42298;53.638;9.876;2024-03-23T05:41:03;101152.69;;;6.93;100.00
56400;BME280;42298;53.638;9.876;2024-03-23T05:43:29;101147.53;;;6.91;100.00
56400;BME280;42298;53.638;9.876;2024-03-23T05:45:59;101160.97;;;6.99;100.00
56400;BME280;42298;53.638;9.876;2024-03-23T05:48:26;101157.38;;;7.00;100.00
56400;BME280;42298;53.638;9.876;2024-03-23T05:50:51;101145.34;;;6.96;100.00
56400;BME280;42298;53.638;9.876;2024-03-23T05:53:17;101150.53;;;6.98;100.00
56400;BME280;42298;53.638;9.876;2024-03-23T05:55:43;101146.78;;;7.00;100.00
56400;BME280;42298;53.638;9.876;2024-03-23T05:58:09;101142.06;;;7.04;100.00
56400;BME280;42298;53.638;9.876;2024-03-23T06:00:35;101128.22;;;7.00;100.00
56400;BME280;42298;53.638;9.876;2024-03-23T06:03:00;101133.66;;;6.99;100.00
56400;BME280;42298;53.638;9.876;2024-03-23T06:05:26;101126.09;;;6.94;100.00
56400;BME280;42298;53.638;9.876;2024-03-23T06:07:51;101126.34;;;6.91;100.00
56400;BME280;42298;53.638;9.876;2024-03-23T06:10:16;101127.31;;;6.90;100.00
56400;BME280;42298;53.638;9.876;2024-03-23T06:12:42;101120.91;;;6.93;100.00
56400;BME280;42298;53.638;9.876;2024-03-23T06:15:08;101129.56;;;6.95;100.00
56400;BME280;42298;53.638;9.876;2024-03-23T06:17:36;101127.78;;;6.95;100.00
56400;BME280;42298;53.638;9.876;2024-03-23T06:20:02;101127.91;;;6.94;100.00
56400;BME280;42298;53.638;9.876;2024-03-23T06:22:27;101124.53;;;6.92;100.00
56400;BME280;42298;53.638;9.876;2024-03-23T06:24:53;101128.75;;;6.94;100.00
56400;BME280;42298;53.638;9.876;2024-03-23T06:27:18;101118.41;;;6.91;100.00
56400;BME280;42298;53.638;9.876;2024-03-23T06:29:44;101120.91;;;6.93;100.00
56400;BME280;42298;53.638;9.876;2024-03-23T06:32:09;101118.03;;;6.96;100.00
56400;BME280;42298;53.638;9.876;2024-03-23T06:34:34;101111.19;;;6.93;100.00
56400;BME280;42298;53.638;9.876;2024-03-23T06:37:00;101116.94;;;6.98;100.00
56400;BME280;42298;53.638;9.876;2024-03-23T06:39:25;101118.59;;;6.99;100.00
56400;BME280;42298;53.638;9.876;2024-03-23T06:41:54;101115.94;;;6.99;100.00
56400;BME280;42298;53.638;9.876;2024-03-23T06:44:20;101112.22;;;7.02;100.00
56400;BME280;42298;53.638;9.876;2024-03-23T06:46:46;101104.63;;;6.97;100.00
56400;BME280;42298;53.638;9.876;2024-03-23T06:49:11;101095.84;;;6.97;100.00
56400;BME280;42298;53.638;9.876;2024-03-23T06:51:37;101108.16;;;6.98;100.00
56400;BME280;42298;53.638;9.876;2024-03-23T06:54:03;101099.50;;;6.96;100.00
56400;BME280;42298;53.638;9.876;2024-03-23T06:56:29;101098.66;;;6.95;100.00
56400;BME280;42298;53.638;9.876;2024-03-23T06:58:54;101107.03;;;7.00;100.00
56400;BME280;42298;53.638;9.876;2024-03-23T07:01:20;101097.78;;;6.95;100.00
56400;BME280;42298;53.638;9.876;2024-03-23T07:03:45;101095.28;;;6.93;100.00
56400;BME280;42298;53.638;9.876;2024-03-23T07:06:10;101091.06;;;6.91;100.00
56400;BME280;42298;53.638;9.876;2024-03-23T07:08:35;101107.88;;;7.01;100.00
56400;BME280;42298;53.638;9.876;2024-03-23T07:11:01;101105.81;;;7.04;100.00
56400;BME280;42298;53.638;9.876;2024-03-23T07:13:27;101104.72;;;7.07;100.00
56400;BME280;42298;53.638;9.876;2024-03-23T07:15:53;101115.75;;;7.12;100.00
56400;BME280;42298;53.638;9.876;2024-03-23T07:18:20;101118.03;;;7.17;100.00
56400;BME280;42298;53.638;9.876;2024-03-23T07:21:05;101123.97;;;7.30;100.00
56400;BME280;42298;53.638;9.876;2024-03-23T07:23:32;101120.47;;;7.30;100.00
56400;BME280;42298;53.638;9.876;2024-03-23T07:26:02;101127.59;;;7.29;100.00
56400;BME280;42298;53.638;9.876;2024-03-23T07:28:28;101108.34;;;7.27;100.00
56400;BME280;42298;53.638;9.876;2024-03-23T07:31:07;101109.75;;;7.31;100.00
56400;BME280;42298;53.638;9.876;2024-03-23T07:33:43;101107.34;;;7.28;100.00
56400;BME280;42298;53.638;9.876;2024-03-23T07:36:09;101093.78;;;7.21;100.00
56400;BME280;42298;53.638;9.876;2024-03-23T07:38:35;101089.47;;;7.20;100.00
56400;BME280;42298;53.638;9.876;2024-03-23T07:41:04;101091.22;;;7.31;100.00
56400;BME280;42298;53.638;9.876;2024-03-23T07:43:30;101089.72;;;7.38;100.00
56400;BME280;42298;53.638;9.876;2024-03-23T07:45:55;101099.53;;;7.47;100.00
56400;BME280;42298;53.638;9.876;2024-03-23T07:48:21;101090.47;;;7.50;100.00
56400;BME280;42298;53.638;9.876;2024-03-23T07:51:16;101090.97;;;7.65;100.00
56400;BME280;42298;53.638;9.876;2024-03-23T07:53:43;101092.69;;;7.76;100.00
56400;BME280;42298;53.638;9.876;2024-03-23T07:56:09;101096.91;;;7.88;100.00
56400;BME280;42298;53.638;9.876;2024-03-23T07:58:35;101089.94;;;7.97;100.00
56400;BME280;42298;53.638;9.876;2024-03-23T08:01:12;101088.63;;;8.22;100.00
56400;BME280;42298;53.638;9.876;2024-03-23T08:03:40;101090.63;;;8.39;100.00
56400;BME280;42298;53.638;9.876;2024-03-23T08:06:19;101076.66;;;8.37;100.00
56400;BME280;42298;53.638;9.876;2024-03-23T08:08:57;101056.94;;;8.40;100.00
56400;BME280;42298;53.638;9.876;2024-03-23T08:11:27;101054.59;;;8.46;100.00
56400;BME280;42298;53.638;9.876;2024-03-23T08:13:52;101034.19;;;8.47;100.00
56400;BME280;42298;53.638;9.876;2024-03-23T08:16:18;101028.34;;;8.53;100.00
56400;BME280;42298;53.638;9.876;2024-03-23T08:18:43;101019.66;;;8.61;100.00
56400;BME280;42298;53.638;9.876;2024-03-23T08:21:09;101011.84;;;8.59;100.00
56400;BME280;42298;53.638;9.876;2024-03-23T08:23:35;100992.84;;;8.54;100.00
56400;BME280;42298;53.638;9.876;2024-03-23T08:26:08;100983.06;;;8.55;100.00
56400;BME280;42298;53.638;9.876;2024-03-23T08:28:34;100980.13;;;8.58;100.00
56400;BME280;42298;53.638;9.876;2024-03-23T08:31:04;100965.03;;;8.58;100.00
56400;BME280;42298;53.638;9.876;2024-03-23T08:33:33;100953.44;;;8.59;100.00
56400;BME280;42298;53.638;9.876;2024-03-23T08:36:00;100941.53;;;8.63;100.00
56400;BME280;42298;53.638;9.876;2024-03-23T08:38:26;100930.38;;;8.60;100.00
56400;BME280;42298;53.638;9.876;2024-03-23T08:41:03;100936.34;;;8.72;100.00
56400;BME280;42298;53.638;9.876;2024-03-23T08:43:29;100931.16;;;8.80;100.00
56400;BME280;42298;53.638;9.876;2024-03-23T08:46:06;100925.97;;;8.88;100.00
56400;BME280;42298;53.638;9.876;2024-03-23T08:48:32;100909.75;;;8.91;100.00
56400;BME280;42298;53.638;9.876;2024-03-23T08:51:02;100903.84;;;8.97;100.00
56400;BME280;42298;53.638;9.876;2024-03-23T08:53:28;100889.00;;;9.04;100.00
56400;BME280;42298;53.638;9.876;2024-03-23T08:55:55;100897.16;;;9.21;100.00
56400;BME280;42298;53.638;9.876;2024-03-23T08:58:20;100894.59;;;9.29;100.00
56400;BME280;42298;53.638;9.876;2024-03-23T09:00:46;100874.63;;;9.25;100.00
56400;BME280;42298;53.638;9.876;2024-03-23T09:03:12;100857.66;;;9.08;100.00
56400;BME280;42298;53.638;9.876;2024-03-23T09:05:40;100839.78;;;9.00;100.00
56400;BME280;42298;53.638;9.876;2024-03-23T09:08:06;100832.41;;;8.94;100.00
56400;BME280;42298;53.638;9.876;2024-03-23T09:10:31;100822.91;;;8.91;100.00
56400;BME280;42298;53.638;9.876;2024-03-23T09:12:57;100827.00;;;8.86;100.00
56400;BME280;42298;53.638;9.876;2024-03-23T09:15:22;100825.31;;;8.85;100.00
56400;BME280;42298;53.638;9.876;2024-03-23T09:17:47;100824.63;;;8.83;100.00
56400;BME280;42298;53.638;9.876;2024-03-23T09:20:13;100824.94;;;8.80;100.00
56400;BME280;42298;53.638;9.876;2024-03-23T09:22:38;100823.91;;;8.90;100.00
56400;BME280;42298;53.638;9.876;2024-03-23T09:25:03;100822.31;;;8.98;100.00
56400;BME280;42298;53.638;9.876;2024-03-23T09:27:30;100818.84;;;8.97;100.00
56400;BME280;42298;53.638;9.876;2024-03-23T09:29:55;100803.34;;;8.93;100.00
56400;BME280;42298;53.638;9.876;2024-03-23T09:32:20;100801.22;;;8.96;100.00
56400;BME280;42298;53.638;9.876;2024-03-23T09:34:46;100791.44;;;8.97;100.00
56400;BME280;42298;53.638;9.876;2024-03-23T09:37:11;100785.28;;;8.96;100.00
56400;BME280;42298;53.638;9.876;2024-03-23T09:39:36;100775.19;;;9.00;100.00
56400;BME280;42298;53.638;9.876;2024-03-23T09:42:02;100768.75;;;9.02;100.00
56400;BME280;42298;53.638;9.876;2024-03-23T09:44:27;100763.44;;;9.02;100.00
56400;BME280;42298;53.638;9.876;2024-03-23T09:46:55;100762.28;;;9.05;100.00
56400;BME280;42298;53.638;9.876;2024-03-23T09:49:20;100763.53;;;9.10;100.00
56400;BME280;42298;53.638;9.876;2024-03-23T09:51:46;100773.25;;;9.20;100.00
56400;BME280;42298;53.638;9.876;2024-03-23T09:54:11;100760.56;;;9.14;100.00
56400;BME280;42298;53.638;9.876;2024-03-23T09:56:37;100772.56;;;9.18;100.00
56400;BME280;42298;53.638;9.876;2024-03-23T09:59:03;100764.13;;;9.22;100.00
56400;BME280;42298;53.638;9.876;2024-03-23T10:01:31;100770.97;;;9.25;100.00
56400;BME280;42298;53.638;9.876;2024-03-23T10:03:56;100767.84;;;9.29;100.00
56400;BME280;42298;53.638;9.876;2024-03-23T10:06:22;100772.19;;;9.48;100.00
56400;BME280;42298;53.638;9.876;2024-03-23T10:08:50;100775.06;;;9.55;100.00
56400;BME280;42298;53.638;9.876;2024-03-23T10:11:16;100757.38;;;9.64;100.00
56400;BME280;42298;53.638;9.876;2024-03-23T10:13:43;100762.13;;;9.78;100.00
56400;BME280;42298;53.638;9.876;2024-03-23T10:16:09;100756.19;;;9.84;100.00
56400;BME280;42298;53.638;9.876;2024-03-23T10:18:38;100749.72;;;9.87;100.00
56400;BME280;42298;53.638;9.876;2024-03-23T10:21:10;100752.28;;;9.97;100.00
56400;BME280;42298;53.638;9.876;2024-03-23T10:23:40;100726.19;;;10.00;100.00
56400;BME280;42298;53.638;9.876;2024-03-23T10:26:17;100720.38;;;9.97;100.00
56400;BME280;42298;53.638;9.876;2024-03-23T10:28:59;100710.75;;;9.78;100.00
56400;BME280;42298;53.638;9.876;2024-03-23T10:31:31;100718.19;;;9.74;100.00
56400;BME280;42298;53.638;9.876;2024-03-23T10:33:57;100706.03;;;9.71;100.00
56400;BME280;42298;53.638;9.876;2024-03-23T10:36:23;100695.84;;;9.59;100.00
56400;BME280;42298;53.638;9.876;2024-03-23T10:38:50;100701.03;;;9.42;100.00
56400;BME280;42298;53.638;9.876;2024-03-23T10:41:16;100713.84;;;9.47;100.00
56400;BME280;42298;53.638;9.876;2024-03-23T10:43:43;100707.44;;;9.58;100.00
56400;BME280;42298;53.638;9.876;2024-03-23T10:46:10;100705.91;;;9.73;100.00
56400;BME280;42298;53.638;9.876;2024-03-23T10:48:35;100707.63;;;9.82;100.00
56400;BME280;42298;53.638;9.876;2024-03-23T10:51:01;100699.56;;;10.00;100.00
56400;BME280;42298;53.638;9.876;2024-03-23T10:53:27;100695.25;;;9.99;100.00
56400;BME280;42298;53.638;9.876;2024-03-23T10:55:54;100697.41;;;9.95;100.00
56400;BME280;42298;53.638;9.876;2024-03-23T10:58:28;100690.72;;;9.91;100.00
56400;BME280;42298;53.638;9.876;2024-03-23T11:00:55;100695.34;;;9.89;100.00
56400;BME280;42298;53.638;9.876;2024-03-23T11:05:55;100687.44;;;9.71;100.00
56400;BME280;42298;53.638;9.876;2024-03-23T11:08:41;100678.41;;;9.64;100.00
56400;BME280;42298;53.638;9.876;2024-03-23T11:11:15;100685.22;;;9.59;100.00
56400;BME280;42298;53.638;9.876;2024-03-23T11:13:42;100677.84;;;9.52;100.00
56400;BME280;42298;53.638;9.876;2024-03-23T11:16:32;100699.47;;;9.58;100.00
56400;BME280;42298;53.638;9.876;2024-03-23T11:19:35;100692.72;;;9.63;100.00
56400;BME280;42298;53.638;9.876;2024-03-23T11:22:04;100688.72;;;9.67;100.00
56400;BME280;42298;53.638;9.876;2024-03-23T11:24:30;100684.56;;;9.65;100.00
56400;BME280;42298;53.638;9.876;2024-03-23T11:26:56;100686.88;;;9.60;100.00
56400;BME280;42298;53.638;9.876;2024-03-23T11:29:21;100683.19;;;9.61;100.00
56400;BME280;42298;53.638;9.876;2024-03-23T11:31:47;100682.22;;;9.62;100.00
56400;BME280;42298;53.638;9.876;2024-03-23T11:34:15;100671.25;;;9.65;100.00
56400;BME280;42298;53.638;9.876;2024-03-23T11:36:40;100675.81;;;9.72;100.00
56400;BME280;42298;53.638;9.876;2024-03-23T11:39:15;100671.19;;;9.74;100.00
56400;BME280;42298;53.638;9.876;2024-03-23T11:41:52;100664.75;;;9.85;100.00
56400;BME280;42298;53.638;9.876;2024-03-23T11:44:21;100665.25;;;9.89;100.00
56400;BME280;42298;53.638;9.876;2024-03-23T11:46:50;100674.56;;;10.19;100.00
56400;BME280;42298;53.638;9.876;2024-03-23T11:51:47;100718.19;;;10.00;100.00
56400;BME280;42298;53.638;9.876;2024-03-23T11:54:12;100697.78;;;9.30;100.00
56400;BME280;42298;53.638;9.876;2024-03-23T11:56:38;100720.38;;;8.81;100.00
56400;BME280;42298;53.638;9.876;2024-03-23T11:59:03;100708.06;;;8.24;100.00
56400;BME280;42298;53.638;9.876;2024-03-23T12:01:28;100713.31;;;7.97;100.00
56400;BME280;42298;53.638;9.876;2024-03-23T12:03:53;100710.75;;;7.77;100.00
56400;BME280;42298;53.638;9.876;2024-03-23T12:06:19;100710.03;;;7.65;100.00
56400;BME280;42298;53.638;9.876;2024-03-23T12:08:45;100722.34;;;7.57;100.00
56400;BME280;42298;53.638;9.876;2024-03-23T12:13:36;100727.38;;;7.60;100.00
56400;BME280;42298;53.638;9.876;2024-03-23T12:18:40;100732.34;;;7.82;100.00
56400;BME280;42298;53.638;9.876;2024-03-23T12:21:06;100730.78;;;7.99;100.00
56400;BME280;42298;53.638;9.876;2024-03-23T12:23:31;100745.22;;;8.24;100.00
56400;BME280;42298;53.638;9.876;2024-03-23T12:25:57;100755.22;;;8.40;100.00
56400;BME280;42298;53.638;9.876;2024-03-23T12:28:23;100774.38;;;8.44;100.00
56400;BME280;42298;53.638;9.876;2024-03-23T12:30:48;100754.94;;;8.43;100.00
56400;BME280;42298;53.638;9.876;2024-03-23T12:33:14;100776.31;;;8.32;100.00
56400;BME280;42298;53.638;9.876;2024-03-23T12:35:39;100767.75;;;8.11;100.00
56400;BME280;42298;53.638;9.876;2024-03-23T12:38:04;100766.94;;;7.81;100.00
56400;BME280;42298;53.638;9.876;2024-03-23T12:40:30;100778.00;;;7.57;100.00
56400;BME280;42298;53.638;9.876;2024-03-23T12:42:55;100753.19;;;7.38;100.00
56400;BME280;42298;53.638;9.876;2024-03-23T12:45:23;100743.00;;;7.24;100.00
56400;BME280;42298;53.638;9.876;2024-03-23T12:47:49;100739.38;;;7.15;100.00
56400;BME280;42298;53.638;9.876;2024-03-23T12:50:14;100736.03;;;7.13;100.00
56400;BME280;42298;53.638;9.876;2024-03-23T12:52:39;100750.78;;;7.25;100.00
56400;BME280;42298;53.638;9.876;2024-03-23T12:55:05;100750.09;;;7.43;100.00
56400;BME280;42298;53.638;9.876;2024-03-23T12:57:31;100756.09;;;7.55;100.00
56400;BME280;42298;53.638;9.876;2024-03-23T12:59:57;100752.19;;;7.69;100.00
56400;BME280;42298;53.638;9.876;2024-03-23T13:02:22;100756.50;;;7.70;100.00
56400;BME280;42298;53.638;9.876;2024-03-23T13:04:52;100753.44;;;7.74;100.00
56400;BME280;42298;53.638;9.876;2024-03-23T13:07:18;100762.47;;;7.81;100.00
56400;BME280;42298;53.638;9.876;2024-03-23T13:09:44;100754.25;;;7.84;100.00
56400;BME280;42298;53.638;9.876;2024-03-23T13:12:09;100760.97;;;7.88;100.00
56400;BME280;42298;53.638;9.876;2024-03-23T13:14:35;100752.31;;;7.86;100.00
56400;BME280;42298;53.638;9.876;2024-03-23T13:17:00;100742.38;;;7.88;100.00
56400;BME280;42298;53.638;9.876;2024-03-23T13:19:27;100739.31;;;7.93;100.00
56400;BME280;42298;53.638;9.876;2024-03-23T13:21:55;100752.56;;;7.93;100.00
56400;BME280;42298;53.638;9.876;2024-03-23T13:24:24;100753.38;;;8.03;100.00
56400;BME280;42298;53.638;9.876;2024-03-23T13:26:53;100765.50;;;8.16;100.00
56400;BME280;42298;53.638;9.876;2024-03-23T13:29:19;100785.84;;;8.25;100.00
56400;BME280;42298;53.638;9.876;2024-03-23T13:31:48;100774.97;;;8.18;100.00
56400;BME280;42298;53.638;9.876;2024-03-23T13:34:14;100775.53;;;8.12;100.00
56400;BME280;42298;53.638;9.876;2024-03-23T13:36:43;100761.06;;;8.06;100.00
56400;BME280;42298;53.638;9.876;2024-03-23T13:39:09;100757.00;;;8.02;100.00
56400;BME280;42298;53.638;9.876;2024-03-23T13:41:38;100751.56;;;8.04;100.00
56400;BME280;42298;53.638;9.876;2024-03-23T13:44:05;100750.00;;;8.01;100.00
56400;BME280;42298;53.638;9.876;2024-03-23T13:46:30;100747.78;;;7.97;100.00
56400;BME280;42298;53.638;9.876;2024-03-23T13:48:56;100749.75;;;8.04;100.00
56400;BME280;42298;53.638;9.876;2024-03-23T13:51:24;100752.34;;;8.14;100.00